Time;durP1;ratioP1;P1;durP2;ratioP2;P2;SDS_P1;SDS_P2;PMS_P1;PMS_P2;Temp;Humidity;BMP_temperature;BMP_pressure;BME280_temperature;BME280_humidity;BME280_pressure;Samples;Min_cycle;Max_cycle;Signal;HPM_P1;HPM_P2
2021/12/18 00:01:27;;;;;;;1.38;1.00;;;;;;;19.39;33.06;99201.38;5093814;28;20047;-65
2021/12/18 00:03:53;;;;;;;1.58;1.10;;;;;;;19.40;33.26;99195.81;5107347;28;20042;-66
2021/12/18 00:06:19;;;;;;;1.67;1.00;;;;;;;19.39;33.30;99191.44;5112615;28;20080;-65
2021/12/18 00:08:45;;;;;;;2.15;1.00;;;;;;;19.36;33.31;99200.72;5099885;28;20032;-66
2021/12/18 00:11:12;;;;;;;1.40;1.02;;;;;;;19.39;33.47;99204.88;5094520;28;20456;-67
2021/12/18 00:13:38;;;;;;;3.15;0.93;;;;;;;19.39;33.40;99202.19;5093984;28;20047;-67
2021/12/18 00:16:04;;;;;;;2.30;1.38;;;;;;;19.39;33.50;99198.69;5094573;28;20031;-66
2021/12/18 00:18:30;;;;;;;1.73;1.05;;;;;;;19.38;33.43;99197.84;5093252;28;20032;-66
2021/12/18 00:21:00;;;;;;;1.88;1.33;;;;;;;19.39;33.57;99199.50;5093936;28;20066;-67
2021/12/18 00:23:26;;;;;;;1.65;0.90;;;;;;;19.38;33.34;99197.84;5093819;28;20039;-67
2021/12/18 00:25:53;;;;;;;0.98;0.85;;;;;;;19.39;33.61;99190.63;5094264;28;20514;-66
2021/12/18 00:28:18;;;;;;;0.93;0.82;;;;;;;19.39;33.51;99187.94;5094982;28;20030;-69
2021/12/18 00:30:44;;;;;;;1.88;1.50;;;;;;;19.39;33.53;99182.59;5093995;28;20110;-67
2021/12/18 00:33:10;;;;;;;1.48;0.98;;;;;;;19.38;34.01;99192.47;5093466;28;20406;-66
2021/12/18 00:35:36;;;;;;;1.67;1.08;;;;;;;19.39;33.84;99194.13;5093573;28;20060;-67
2021/12/18 00:38:06;;;;;;;1.85;1.25;;;;;;;19.39;33.90;99194.13;5093061;28;20039;-65
2021/12/18 00:40:45;;;;;;;1.40;1.10;;;;;;;19.36;33.79;99194.50;5093308;28;20039;-67
2021/12/18 00:43:28;;;;;;;3.20;1.20;;;;;;;19.38;33.84;99197.84;5092870;28;20043;-67
2021/12/18 00:45:54;;;;;;;1.58;0.98;;;;;;;19.38;33.83;99197.00;5093347;28;20081;-66
2021/12/18 00:48:20;;;;;;;1.55;0.98;;;;;;;19.36;33.89;99199.88;5093562;28;20032;-67
2021/12/18 00:50:46;;;;;;;1.70;1.00;;;;;;;19.36;33.73;99194.50;5093397;28;20031;-66
2021/12/18 00:53:12;;;;;;;1.30;0.93;;;;;;;19.35;33.52;99193.69;5094292;28;20074;-67
2021/12/18 00:55:38;;;;;;;2.25;1.20;;;;;;;19.36;33.54;99195.34;5093555;28;20036;-67
2021/12/18 00:58:04;;;;;;;1.33;0.90;;;;;;;19.36;33.81;99199.88;5096935;28;20531;-67
2021/12/18 01:00:31;;;;;;;2.15;1.10;;;;;;;19.38;33.70;99197.84;5093196;28;20122;-67
2021/12/18 01:03:00;;;;;;;1.85;0.85;;;;;;;19.36;33.72;99206.06;5093015;28;20035;-67
2021/12/18 01:05:27;;;;;;;1.73;1.33;;;;;;;19.34;33.91;99205.44;5093144;28;20028;-67
2021/12/18 01:07:55;;;;;;;1.67;1.10;;;;;;;19.38;33.39;99199.69;5093046;28;20034;-66
2021/12/18 01:13:09;;;;;;;1.00;0.70;;;;;;;19.38;33.65;99208.56;5094782;28;20236;-66
2021/12/18 01:15:40;;;;;;;1.38;0.95;;;;;;;19.36;33.62;99202.53;5093208;28;20402;-65
2021/12/18 01:23:34;;;;;;;1.15;0.85;;;;;;;19.34;33.81;99208.09;5092967;28;20081;-67
2021/12/18 01:26:03;;;;;;;1.10;0.80;;;;;;;19.35;33.93;99203.56;5093215;28;20036;-67
2021/12/18 01:28:29;;;;;;;2.20;1.10;;;;;;;19.37;33.91;99201.53;5092023;28;20039;-67
2021/12/18 01:30:54;;;;;;;0.93;0.70;;;;;;;19.38;33.90;99205.88;5093286;28;20047;-67
2021/12/18 01:33:20;;;;;;;1.55;1.00;;;;;;;19.37;33.85;99201.53;5092074;28;20027;-67
2021/12/18 01:35:45;;;;;;;1.08;0.80;;;;;;;19.36;33.91;99199.88;5092642;28;20537;-67
2021/12/18 01:38:12;;;;;;;1.30;1.02;;;;;;;19.35;34.02;99203.56;5092593;28;20394;-66
2021/12/18 01:40:38;;;;;;;1.45;0.88;;;;;;;19.34;33.98;99201.91;5094043;28;20060;-67
2021/12/18 01:46:12;;;;;;;1.27;0.77;;;;;;;19.34;34.15;99194.69;5093138;28;20108;-67
2021/12/18 01:51:45;;;;;;;1.35;0.95;;;;;;;19.35;33.95;99195.50;5092895;28;20096;-67
2021/12/18 01:54:11;;;;;;;0.88;0.77;;;;;;;19.39;33.94;99204.03;5093222;28;20027;-67
2021/12/18 01:56:36;;;;;;;1.02;0.73;;;;;;;19.39;33.96;99206.72;5092433;28;20036;-67
2021/12/18 01:59:02;;;;;;;2.95;0.70;;;;;;;19.38;33.91;99203.19;5092162;28;20028;-66
2021/12/18 02:01:28;;;;;;;1.83;1.02;;;;;;;19.41;33.89;99212.75;5093017;28;20467;-67
2021/12/18 02:03:54;;;;;;;1.20;0.82;;;;;;;19.41;34.16;99210.06;5093577;28;20042;-66
2021/12/18 02:06:20;;;;;;;0.77;0.68;;;;;;;19.41;34.09;99213.56;5092939;28;20433;-67
2021/12/18 02:08:46;;;;;;;1.63;0.88;;;;;;;19.41;34.04;99210.06;5092239;28;20399;-68
2021/12/18 02:11:28;;;;;;;3.13;1.10;;;;;;;19.41;33.73;99218.09;5092564;28;20039;-65
2021/12/18 02:22:01;;;;;;;1.20;0.80;;;;;;;19.38;33.59;99213.94;5094723;28;20038;-67
2021/12/18 02:24:29;;;;;;;1.52;0.98;;;;;;;19.41;33.67;99223.47;5097439;28;20062;-67
2021/12/18 02:26:55;;;;;;;1.25;0.90;;;;;;;19.42;33.71;99220.59;5097399;28;20020;-67
2021/12/18 02:29:21;;;;;;;1.58;1.10;;;;;;;19.41;33.69;99218.09;5093318;28;20085;-66
2021/12/18 02:31:47;;;;;;;1.40;1.00;;;;;;;19.38;33.48;99208.56;5096758;28;20024;-67
2021/12/18 02:34:22;;;;;;;0.95;0.60;;;;;;;19.36;33.57;99224.00;5100837;28;20059;-67
2021/12/18 02:36:49;;;;;;;1.05;0.70;;;;;;;19.32;33.63;99220.88;5095876;28;20035;-67
2021/12/18 02:42:08;;;;;;;0.68;0.60;;;;;;;19.31;33.60;99229.13;5097710;28;20164;-67
2021/12/18 02:44:34;;;;;;;0.82;0.60;;;;;;;19.30;33.64;99232.81;5096314;28;20042;-66
2021/12/18 02:47:00;;;;;;;2.38;0.70;;;;;;;19.28;33.55;99238.34;5096668;28;20028;-67
2021/12/18 02:49:27;;;;;;;1.45;0.77;;;;;;;19.28;33.42;99232.16;5095397;28;20039;-67
2021/12/18 02:51:53;;;;;;;0.85;0.57;;;;;;;19.28;33.43;99237.53;5095675;28;20501;-67
2021/12/18 02:54:18;;;;;;;0.85;0.55;;;;;;;19.27;33.49;99236.69;5095561;28;20039;-66
2021/12/18 02:56:44;;;;;;;0.70;0.50;;;;;;;19.26;33.57;99242.25;5095193;28;20028;-67
2021/12/18 02:59:10;;;;;;;0.95;0.80;;;;;;;19.25;33.52;99240.56;5095546;28;20040;-67
2021/12/18 03:01:38;;;;;;;1.40;0.68;;;;;;;19.24;33.59;99228.19;5096190;28;20497;-65
2021/12/18 03:04:26;;;;;;;1.13;0.57;;;;;;;19.24;33.44;99237.06;5094955;28;20035;-67
2021/12/18 03:06:57;;;;;;;0.90;0.50;;;;;;;19.25;33.60;99232.53;5096543;28;20375;-67
2021/12/18 03:25:37;;;;;;;0.70;0.70;;;;;;;19.25;33.18;99245.94;5102820;28;20040;-67
2021/12/18 03:28:04;;;;;;;0.95;0.52;;;;;;;19.24;33.13;99239.75;5108117;28;20031;-65
2021/12/18 03:30:32;;;;;;;1.00;0.60;;;;;;;19.24;33.14;99244.28;5095251;28;20456;-65
2021/12/18 03:32:58;;;;;;;1.25;0.50;;;;;;;19.24;33.06;99246.97;5094499;28;20406;-64
2021/12/18 03:35:24;;;;;;;0.38;0.30;;;;;;;19.23;33.10;99245.28;5094731;28;20532;-64
2021/12/18 03:37:50;;;;;;;0.40;0.32;;;;;;;19.25;32.96;99257.53;5094598;28;20407;-65
2021/12/18 03:40:19;;;;;;;0.70;0.50;;;;;;;19.25;33.12;99248.63;5095144;28;20024;-66
2021/12/18 03:42:45;;;;;;;0.55;0.40;;;;;;;19.25;32.87;99254.00;5096007;28;20169;-66
2021/12/18 03:45:12;;;;;;;0.50;0.40;;;;;;;19.23;32.97;99248.81;5094904;28;20032;-66
2021/12/18 03:47:39;;;;;;;0.52;0.30;;;;;;;19.23;33.06;99251.50;5094838;28;20038;-66
2021/12/18 03:50:05;;;;;;;1.27;0.32;;;;;;;19.23;33.11;99251.50;5094675;28;20151;-66
2021/12/18 03:52:31;;;;;;;0.40;0.35;;;;;;;19.23;32.97;99254.19;5094077;28;20031;-64
2021/12/18 03:54:59;;;;;;;0.47;0.40;;;;;;;19.24;33.01;99258.53;5094923;28;20031;-66
2021/12/18 03:57:25;;;;;;;0.73;0.38;;;;;;;19.24;33.04;99265.72;5098864;28;20583;-66
2021/12/18 03:59:50;;;;;;;0.50;0.30;;;;;;;19.26;33.04;99269.06;5114825;28;20148;-65
2021/12/18 04:02:16;;;;;;;2.13;0.40;;;;;;;19.25;32.83;99273.63;5112145;28;20485;-65
2021/12/18 04:04:42;;;;;;;0.63;0.32;;;;;;;19.26;32.80;99269.91;5094647;28;20032;-66
2021/12/18 04:07:08;;;;;;;0.93;0.50;;;;;;;19.27;32.80;99270.72;5094190;28;20132;-65
2021/12/18 04:09:34;;;;;;;0.75;0.35;;;;;;;19.28;32.91;99272.41;5094334;28;20038;-66
2021/12/18 04:11:59;;;;;;;1.25;0.47;;;;;;;19.27;32.98;99271.56;5094427;28;20479;-67
2021/12/18 04:14:25;;;;;;;0.73;0.40;;;;;;;19.30;33.22;99278.41;5111700;28;20524;-67
2021/12/18 04:16:50;;;;;;;0.63;0.40;;;;;;;19.31;33.15;99277.41;5114718;28;20028;-67
2021/12/18 04:19:16;;;;;;;1.27;0.40;;;;;;;19.33;32.99;99284.25;5106779;28;20036;-67
2021/12/18 04:21:42;;;;;;;0.60;0.43;;;;;;;19.33;32.95;99278.88;5094234;28;20066;-66
2021/12/18 04:24:08;;;;;;;2.10;0.50;;;;;;;19.32;32.97;99271.03;5093440;28;20118;-67
2021/12/18 04:26:35;;;;;;;0.47;0.40;;;;;;;19.32;32.91;99273.72;5093994;28;20120;-67
2021/12/18 04:29:05;;;;;;;1.27;0.47;;;;;;;19.32;32.87;99276.38;5093795;28;20531;-67
2021/12/18 04:31:31;;;;;;;0.40;0.40;;;;;;;19.32;32.79;99269.16;5093884;28;20036;-66
2021/12/18 04:33:57;;;;;;;0.60;0.60;;;;;;;19.32;32.64;99265.66;5095113;28;20055;-67
2021/12/18 04:36:22;;;;;;;0.30;0.30;;;;;;;19.33;32.68;99270.81;5104000;28;20470;-66
2021/12/18 04:38:50;;;;;;;0.93;0.40;;;;;;;19.34;32.70;99271.66;5099889;28;20066;-67
2021/12/18 04:41:37;;;;;;;0.57;0.40;;;;;;;19.33;32.66;99276.19;5093776;28;20039;-66
2021/12/18 04:44:03;;;;;;;1.13;0.65;;;;;;;19.33;32.76;99270.00;5094889;28;20252;-66
2021/12/18 04:46:29;;;;;;;1.48;0.50;;;;;;;19.32;32.63;99271.84;5097590;28;20020;-66
2021/12/18 04:48:55;;;;;;;0.47;0.32;;;;;;;19.32;32.50;99271.03;5107125;28;20028;-68
2021/12/18 04:51:20;;;;;;;0.20;0.20;;;;;;;19.33;32.58;99280.75;5093429;28;20031;-66
2021/12/18 04:53:46;;;;;;;0.43;0.30;;;;;;;19.31;32.51;99277.41;5091052;28;20032;-66
2021/12/18 04:56:12;;;;;;;1.05;0.43;;;;;;;19.30;32.55;99281.09;5093085;28;20028;-64
2021/12/18 04:58:38;;;;;;;0.50;0.40;;;;;;;19.29;32.67;99263.34;5093627;28;20039;-67
2021/12/18 05:01:04;;;;;;;1.17;0.63;;;;;;;19.30;32.78;99275.75;5093559;28;20024;-66
2021/12/18 05:03:30;;;;;;;0.70;0.30;;;;;;;19.29;32.70;99274.06;5092658;28;20031;-67
2021/12/18 05:05:59;;;;;;;0.50;0.40;;;;;;;19.29;32.67;99279.44;5093308;28;20055;-66
2021/12/18 05:08:24;;;;;;;0.30;0.25;;;;;;;19.33;32.74;99278.06;5092941;28;20065;-66
2021/12/18 05:10:50;;;;;;;0.52;0.40;;;;;;;19.33;32.54;99286.91;5093114;28;20032;-66
2021/12/18 05:13:15;;;;;;;0.35;0.32;;;;;;;19.36;32.48;99285.72;5092908;28;20494;-66
2021/12/18 05:15:41;;;;;;;0.40;0.40;;;;;;;19.35;32.33;99282.22;5093038;28;20115;-66
2021/12/18 05:18:06;;;;;;;0.85;0.40;;;;;;;19.35;32.42;99284.91;5092907;28;20032;-66
2021/12/18 05:20:32;;;;;;;1.52;0.55;;;;;;;19.35;32.30;99273.31;5110878;28;20050;-66
2021/12/18 05:22:58;;;;;;;0.52;0.32;;;;;;;19.35;32.28;99284.91;5103510;28;20459;-66
2021/12/18 05:25:23;;;;;;;1.23;0.60;;;;;;;19.35;32.15;99289.41;5092525;28;20498;-66
2021/12/18 05:27:49;;;;;;;1.08;0.50;;;;;;;19.33;32.17;99284.25;5092922;28;20028;-66
2021/12/18 05:30:15;;;;;;;0.85;0.50;;;;;;;19.34;32.23;99283.22;5092868;28;20410;-65
2021/12/18 05:32:40;;;;;;;1.55;0.70;;;;;;;19.35;32.14;99284.03;5092467;28;20082;-66
2021/12/18 05:35:07;;;;;;;1.30;0.75;;;;;;;19.38;31.99;99282.84;5092721;28;20058;-67
2021/12/18 05:37:46;;;;;;;0.80;0.43;;;;;;;19.38;31.96;99278.31;5092027;28;20024;-67
2021/12/18 05:40:13;;;;;;;1.80;0.93;;;;;;;19.39;31.95;99279.97;5092929;28;20062;-68
2021/12/18 05:42:39;;;;;;;1.48;0.70;;;;;;;19.38;31.91;99274.81;5092860;28;20417;-67
2021/12/18 05:45:06;;;;;;;1.80;0.80;;;;;;;19.38;31.94;99277.50;5092456;28;20035;-68
2021/12/18 05:47:33;;;;;;;1.23;0.70;;;;;;;19.36;31.74;99273.16;5095720;28;20038;-67
2021/12/18 05:49:58;;;;;;;1.00;0.68;;;;;;;19.38;31.94;99275.63;5112865;28;20039;-67
2021/12/18 05:52:25;;;;;;;1.35;0.90;;;;;;;19.36;31.92;99270.47;5107501;28;20035;-67
2021/12/18 05:54:50;;;;;;;1.08;0.68;;;;;;;19.39;32.08;99282.66;5092706;28;20114;-67
2021/12/18 05:57:16;;;;;;;1.45;0.55;;;;;;;19.38;32.00;99278.31;5092434;28;20487;-66
2021/12/18 05:59:43;;;;;;;1.27;0.60;;;;;;;19.39;32.04;99279.16;5092182;28;20036;-66
2021/12/18 06:02:09;;;;;;;1.50;0.80;;;;;;;19.39;32.09;99287.22;5092577;28;20055;-65
2021/12/18 06:04:35;;;;;;;1.25;0.60;;;;;;;19.39;32.07;99274.63;5094055;28;20466;-66
2021/12/18 06:07:04;;;;;;;0.82;0.40;;;;;;;19.39;32.27;99273.78;5096567;28;20555;-66
2021/12/18 06:09:37;;;;;;;1.40;0.90;;;;;;;19.39;31.93;99279.97;5101550;28;20413;-66
2021/12/18 06:12:02;;;;;;;1.33;0.80;;;;;;;19.41;31.87;99280.63;5096353;28;20032;-66
2021/12/18 06:14:29;;;;;;;1.95;0.93;;;;;;;19.40;32.00;99289.69;5096339;28;20222;-65
2021/12/18 06:16:55;;;;;;;1.98;1.10;;;;;;;19.40;32.01;99287.00;5095933;28;20035;-67
2021/12/18 06:19:21;;;;;;;1.67;0.90;;;;;;;19.41;32.14;99286.00;5096025;28;20044;-68
2021/12/18 06:21:47;;;;;;;1.40;1.00;;;;;;;19.42;31.93;99292.19;5096552;28;20035;-66
2021/12/18 06:24:12;;;;;;;1.30;0.90;;;;;;;19.42;31.96;99279.63;5095946;28;20036;-66
2021/12/18 06:26:38;;;;;;;3.00;1.40;;;;;;;19.46;31.86;99290.81;5096319;28;20051;-67
2021/12/18 06:29:04;;;;;;;2.42;1.48;;;;;;;19.45;32.24;99292.66;5096239;28;20483;-67
2021/12/18 06:31:31;;;;;;;2.03;1.13;;;;;;;19.45;32.22;99287.31;5094857;28;20028;-67
2021/12/18 06:33:56;;;;;;;2.20;1.33;;;;;;;19.47;32.10;99292.47;5095959;28;20444;-67
2021/12/18 06:36:22;;;;;;;1.98;1.02;;;;;;;19.46;31.90;99291.66;5106974;28;20051;-66
2021/12/18 06:38:48;;;;;;;1.67;1.10;;;;;;;19.44;31.90;99280.28;5116075;28;20174;-66
2021/12/18 06:41:13;;;;;;;1.80;0.90;;;;;;;19.46;31.60;99285.44;5116558;28;20405;-66
2021/12/18 06:43:39;;;;;;;1.45;0.80;;;;;;;19.46;31.55;99285.44;5105081;28;20067;-67
2021/12/18 06:46:06;;;;;;;1.00;0.70;;;;;;;19.47;31.51;99290.63;5096188;28;20047;-67
2021/12/18 06:48:32;;;;;;;1.15;0.73;;;;;;;19.47;31.64;99290.63;5095822;28;20032;-68
2021/12/18 06:50:58;;;;;;;1.10;0.68;;;;;;;19.48;31.65;99294.97;5095583;28;20515;-67
2021/12/18 06:53:24;;;;;;;2.67;0.90;;;;;;;19.48;31.65;99291.47;5099287;28;20027;-66
2021/12/18 06:55:49;;;;;;;1.77;1.15;;;;;;;19.48;31.70;99288.78;5116044;28;20031;-64
2021/12/18 06:58:15;;;;;;;1.40;0.88;;;;;;;19.47;31.72;99282.59;5115748;28;20024;-64
2021/12/18 07:00:41;;;;;;;0.93;0.65;;;;;;;19.48;31.39;99284.22;5115971;28;20035;-65
2021/12/18 07:03:06;;;;;;;1.17;0.68;;;;;;;19.51;31.49;99285.72;5115657;28;20031;-65
2021/12/18 07:05:32;;;;;;;1.02;0.40;;;;;;;19.51;31.28;99291.91;5114908;28;20421;-64
2021/12/18 07:07:57;;;;;;;0.70;0.50;;;;;;;19.51;31.07;99285.72;5110435;27;20024;-65
2021/12/18 07:10:23;;;;;;;0.85;0.47;;;;;;;19.52;31.14;99296.25;5095329;28;20036;-65
2021/12/18 07:12:48;;;;;;;1.25;0.63;;;;;;;19.54;31.23;99290.72;5095177;28;20047;-64
2021/12/18 07:15:14;;;;;;;1.30;0.60;;;;;;;19.55;31.13;99283.50;5102770;28;20030;-64
2021/12/18 07:17:40;;;;;;;1.77;0.55;;;;;;;19.55;31.26;99280.81;5097677;28;20123;-65
2021/12/18 07:20:09;;;;;;;1.67;0.88;;;;;;;19.56;31.15;99279.81;5100605;28;20185;-65
2021/12/18 07:22:34;;;;;;;0.70;0.50;;;;;;;19.60;31.35;99283.78;5094501;28;20042;-65
2021/12/18 07:25:00;;;;;;;1.30;0.90;;;;;;;19.59;31.28;99280.25;5094680;28;20032;-65
2021/12/18 07:27:25;;;;;;;3.70;0.70;;;;;;;19.62;31.16;99279.06;5105919;28;20031;-65
2021/12/18 07:29:51;;;;;;;1.00;0.50;;;;;;;19.64;31.12;99274.31;5115321;28;20092;-65
2021/12/18 07:32:17;;;;;;;0.60;0.40;;;;;;;19.65;31.19;99278.66;5115687;28;20042;-65
2021/12/18 07:34:42;;;;;;;1.10;0.40;;;;;;;19.67;31.08;99280.16;5114819;28;20051;-65
2021/12/18 07:37:08;;;;;;;1.05;0.55;;;;;;;19.67;30.89;99282.84;5114428;28;20571;-65
2021/12/18 07:39:34;;;;;;;1.52;0.60;;;;;;;19.71;31.02;99280.63;5114973;28;20035;-65
2021/12/18 07:41:59;;;;;;;0.85;0.30;;;;;;;19.73;30.83;99289.31;5115230;28;20039;-66
2021/12/18 07:44:25;;;;;;;2.10;0.65;;;;;;;19.76;31.11;99293.47;5098728;28;20097;-66
2021/12/18 07:46:50;;;;;;;1.10;0.45;;;;;;;19.76;31.12;99286.28;5108375;28;20032;-66
2021/12/18 07:49:16;;;;;;;0.55;0.47;;;;;;;19.77;30.98;99290.63;5114260;28;20039;-65
2021/12/18 07:51:42;;;;;;;1.23;0.40;;;;;;;19.77;30.93;99285.25;5115493;28;20047;-65
2021/12/18 07:54:07;;;;;;;1.27;0.40;;;;;;;19.77;30.88;99279.88;5114463;28;20040;-64
2021/12/18 07:56:35;;;;;;;0.70;0.30;;;;;;;19.78;30.68;99281.53;5115259;28;20040;-64
2021/12/18 07:59:01;;;;;;;0.70;0.40;;;;;;;19.78;30.59;99284.22;5099373;28;20496;-66
2021/12/18 08:01:27;;;;;;;0.47;0.30;;;;;;;19.78;30.68;99276.16;5110263;28;20046;-65
2021/12/18 08:03:52;;;;;;;1.20;0.63;;;;;;;19.78;30.65;99280.69;5101546;28;20459;-65
2021/12/18 08:06:21;;;;;;;1.73;0.70;;;;;;;19.77;30.55;99279.88;5094242;28;20063;-65
2021/12/18 08:08:47;;;;;;;1.27;0.40;;;;;;;19.76;30.58;99272.00;5094117;28;20032;-65
2021/12/18 08:11:14;;;;;;;1.60;0.68;;;;;;;19.75;30.66;99273.88;5105104;28;20103;-65
2021/12/18 08:13:39;;;;;;;2.65;0.50;;;;;;;19.77;30.78;99266.47;5104145;28;20058;-64
2021/12/18 08:16:05;;;;;;;1.25;0.52;;;;;;;19.77;30.74;99265.63;5094099;28;20055;-64
2021/12/18 08:18:31;;;;;;;0.93;0.52;;;;;;;19.78;30.85;99260.03;5094888;28;20493;-64
2021/12/18 08:20:56;;;;;;;1.30;0.50;;;;;;;19.79;30.77;99255.53;5113784;28;20114;-64
2021/12/18 08:23:22;;;;;;;0.93;0.60;;;;;;;19.81;30.70;99254.31;5105498;28;20089;-65
2021/12/18 08:25:48;;;;;;;1.10;0.60;;;;;;;19.81;30.76;99242.75;5112055;28;20039;-65
2021/12/18 08:28:13;;;;;;;1.42;0.40;;;;;;;19.81;30.78;99251.63;5114347;28;20036;-65
2021/12/18 08:30:39;;;;;;;1.33;0.88;;;;;;;19.81;30.53;99248.13;5113771;28;20043;-65
2021/12/18 08:33:05;;;;;;;1.25;0.70;;;;;;;19.83;30.73;99238.03;5106099;27;20028;-66
2021/12/18 08:35:32;;;;;;;0.47;0.40;;;;;;;19.83;30.85;99233.47;5099253;28;20615;-65
2021/12/18 08:37:59;;;;;;;1.65;0.60;;;;;;;19.86;31.00;99228.75;5106823;28;20406;-67
2021/12/18 08:40:25;;;;;;;0.95;0.63;;;;;;;19.87;30.91;99228.59;5094260;28;20036;-63
2021/12/18 08:42:52;;;;;;;1.45;0.50;;;;;;;19.88;31.09;99219.50;5096673;28;20109;-70
2021/12/18 08:45:18;;;;;;;7.13;1.02;;;;;;;19.93;31.33;99227.00;5094905;28;20036;-63
2021/12/18 08:47:44;;;;;;;3.35;1.80;;;;;;;19.95;31.64;99222.28;5094449;28;20070;-63
2021/12/18 08:50:13;;;;;;;6.80;2.53;;;;;;;20.00;31.76;99224.41;5094010;28;20428;-64
2021/12/18 08:52:39;;;;;;;5.65;2.45;;;;;;;20.03;31.96;99205.22;5093386;28;20452;-63
2021/12/18 08:55:05;;;;;;;8.10;2.58;;;;;;;20.06;32.12;99210.19;5100796;28;20121;-63
2021/12/18 08:57:31;;;;;;;6.43;3.30;;;;;;;20.08;32.24;99208.97;5092878;28;20402;-64
2021/12/18 08:59:57;;;;;;;7.18;3.40;;;;;;;20.12;32.22;99196.03;5093879;28;20063;-65
2021/12/18 09:02:22;;;;;;;6.93;2.90;;;;;;;20.17;32.25;99192.75;5098817;28;20445;-64
2021/12/18 09:04:49;;;;;;;7.72;3.58;;;;;;;20.27;32.09;99187.88;5102179;28;20122;-61
2021/12/18 09:07:15;;;;;;;5.18;3.08;;;;;;;20.39;32.30;99186.34;5111783;28;20027;-62
2021/12/18 09:09:41;;;;;;;7.38;3.42;;;;;;;20.42;32.04;99188.63;5099450;28;20097;-60
2021/12/18 09:12:11;;;;;;;8.93;3.15;;;;;;;20.43;32.23;99176.06;5094354;28;20036;-59
2021/12/18 09:14:37;;;;;;;5.20;3.03;;;;;;;20.42;32.24;99177.06;5108026;28;20482;-61
2021/12/18 09:17:03;;;;;;;8.55;2.97;;;;;;;20.41;32.35;99175.41;5110330;28;20139;-68
2021/12/18 09:19:29;;;;;;;8.18;3.17;;;;;;;20.40;32.44;99171.06;5103421;28;20517;-65
2021/12/18 09:21:55;;;;;;;5.72;3.03;;;;;;;20.38;32.50;99168.56;5094115;28;20042;-63
2021/12/18 09:24:21;;;;;;;8.10;2.58;;;;;;;20.34;32.51;99169.13;5093858;28;20119;-64
2021/12/18 09:26:47;;;;;;;5.80;2.65;;;;;;;20.32;32.48;99157.75;5106568;28;20106;-61
2021/12/18 09:29:13;;;;;;;6.13;2.50;;;;;;;20.31;32.57;99165.00;5101418;28;20027;-63
2021/12/18 09:31:39;;;;;;;7.47;2.35;;;;;;;20.31;32.59;99158.78;5093048;28;20046;-67
2021/12/18 09:34:05;;;;;;;9.93;2.72;;;;;;;20.31;32.64;99156.09;5107084;28;20513;-59
2021/12/18 09:36:31;;;;;;;8.40;2.58;;;;;;;20.28;32.48;99160.00;5094273;28;20028;-62
2021/12/18 09:38:56;;;;;;;4.22;2.40;;;;;;;20.29;32.46;99156.28;5096322;28;20033;-64
2021/12/18 09:41:23;;;;;;;4.43;2.20;;;;;;;20.28;32.64;99152.78;5109812;28;20040;-64
2021/12/18 09:43:49;;;;;;;10.18;2.60;;;;;;;20.30;32.50;99155.25;5113236;28;20047;-66
2021/12/18 09:46:16;;;;;;;8.68;2.50;;;;;;;20.34;33.04;99136.91;5102139;28;20038;-63
2021/12/18 09:48:43;;;;;;;16.38;2.58;;;;;;;20.36;33.04;99151.81;5093422;28;20040;-67
2021/12/18 09:51:20;;;;;;;4.68;2.25;;;;;;;20.40;32.85;99144.19;5110433;28;20064;-65
2021/12/18 09:53:46;;;;;;;7.32;2.63;;;;;;;20.43;32.74;99141.13;5099716;28;20036;-64
2021/12/18 09:56:12;;;;;;;10.63;1.75;;;;;;;20.45;32.44;99143.59;5095861;28;20035;-65
2021/12/18 09:58:37;;;;;;;5.18;1.70;;;;;;;20.48;32.43;99138.66;5110771;28;20066;-64
2021/12/18 10:01:03;;;;;;;4.60;1.98;;;;;;;20.49;32.20;99140.31;5101467;28;20062;-64
2021/12/18 10:03:46;;;;;;;5.60;1.70;;;;;;;20.49;32.04;99137.63;5102043;28;20089;-64
2021/12/18 10:06:35;;;;;;;5.95;1.45;;;;;;;20.49;32.25;99134.94;5092235;28;20040;-64
2021/12/18 10:09:09;;;;;;;4.70;1.73;;;;;;;20.48;32.03;99133.28;5091892;28;20035;-66
2021/12/18 10:11:54;;;;;;;5.32;1.85;;;;;;;20.46;32.05;99124.59;5092621;28;20398;-66
2021/12/18 10:14:31;;;;;;;7.15;2.25;;;;;;;20.45;32.09;99127.47;5092721;28;20032;-66
2021/12/18 10:16:57;;;;;;;3.40;1.63;;;;;;;20.43;32.12;99128.50;5102080;28;20535;-66
2021/12/18 10:19:43;;;;;;;5.93;1.80;;;;;;;20.41;32.17;99130.53;5100713;28;20039;-66
2021/12/18 10:22:10;;;;;;;4.40;1.55;;;;;;;20.38;31.93;99122.88;5091813;28;20101;-66
2021/12/18 10:24:39;;;;;;;2.80;1.15;;;;;;;20.36;31.99;99124.94;5109745;28;20039;-64
2021/12/18 10:27:20;;;;;;;5.90;1.58;;;;;;;20.31;32.05;99119.31;5112884;28;20031;-65
2021/12/18 10:29:47;;;;;;;3.08;1.50;;;;;;;20.31;32.07;99119.31;5101065;28;20032;-66
2021/12/18 10:32:16;;;;;;;5.70;1.60;;;;;;;20.30;32.15;99130.25;5093161;28;20384;-66
2021/12/18 10:34:49;;;;;;;6.47;1.52;;;;;;;20.30;32.09;99123.03;5092824;28;20056;-66
2021/12/18 10:37:21;;;;;;;2.58;1.58;;;;;;;20.28;32.17;99123.22;5092554;28;20395;-66
2021/12/18 10:39:59;;;;;;;2.30;0.90;;;;;;;20.26;32.13;99119.06;5093520;28;20415;-66
2021/12/18 10:42:29;;;;;;;3.10;1.60;;;;;;;20.23;32.14;99114.91;5092228;28;20028;-66
2021/12/18 10:45:22;;;;;;;1.88;1.23;;;;;;;20.22;32.10;99121.31;5098990;28;20036;-64
2021/12/18 10:47:56;;;;;;;5.50;1.38;;;;;;;20.22;31.75;99120.50;5105303;28;20036;-64
2021/12/18 10:50:31;;;;;;;1.77;1.15;;;;;;;20.18;32.07;99111.16;5092734;28;20042;-66
2021/12/18 10:52:58;;;;;;;6.20;1.20;;;;;;;20.19;32.18;99118.19;5097520;28;20081;-64
2021/12/18 10:55:34;;;;;;;1.98;1.00;;;;;;;20.18;31.94;99116.53;5113002;28;20031;-65
2021/12/18 10:58:02;;;;;;;1.52;0.90;;;;;;;20.15;32.20;99114.22;5108418;27;20058;-64
2021/12/18 11:00:42;;;;;;;2.50;1.00;;;;;;;20.15;32.22;99116.91;5096853;28;20055;-66
2021/12/18 11:03:16;;;;;;;1.88;0.88;;;;;;;20.12;32.18;99102.03;5098127;28;20111;-66
2021/12/18 11:05:42;;;;;;;2.15;1.10;;;;;;;20.10;32.09;99104.06;5095465;28;20104;-65
2021/12/18 11:08:11;;;;;;;1.35;0.88;;;;;;;20.10;32.08;99107.56;5096029;28;20042;-66
2021/12/18 11:10:53;;;;;;;2.50;0.82;;;;;;;20.10;32.35;99109.44;5109492;28;20446;-66
2021/12/18 11:16:05;;;;;;;1.42;0.80;;;;;;;20.06;32.24;99095.56;5102422;28;20070;-66
2021/12/18 11:18:33;;;;;;;1.90;0.88;;;;;;;20.05;32.37;99096.59;5106960;28;20559;-65
2021/12/18 11:20:59;;;;;;;2.95;1.10;;;;;;;20.01;32.26;99098.00;5115783;28;20518;-66
2021/12/18 11:23:36;;;;;;;1.48;0.93;;;;;;;20.01;32.41;99089.09;5113572;28;21443;-66
2021/12/18 11:26:02;;;;;;;1.17;0.63;;;;;;;20.01;32.36;99089.09;5115467;28;20078;-66
2021/12/18 11:28:30;;;;;;;3.33;0.93;;;;;;;20.01;32.41;99089.94;5109344;28;20039;-66
2021/12/18 11:30:56;;;;;;;4.03;0.73;;;;;;;19.99;32.61;99086.63;5095922;28;20188;-66
2021/12/18 11:33:22;;;;;;;0.70;0.65;;;;;;;19.99;32.46;99086.63;5098705;28;20123;-66
2021/12/18 11:35:48;;;;;;;2.38;0.80;;;;;;;19.99;32.24;99086.63;5115300;28;20048;-66
2021/12/18 11:38:15;;;;;;;1.48;0.90;;;;;;;19.97;32.40;99081.44;5115473;27;20041;-66
2021/12/18 11:40:42;;;;;;;1.45;0.80;;;;;;;19.97;32.53;99077.91;5115246;28;20031;-66
2021/12/18 11:43:28;;;;;;;2.17;0.90;;;;;;;19.95;32.38;99080.81;5109498;27;20038;-66
2021/12/18 11:45:54;;;;;;;1.77;0.82;;;;;;;19.94;32.26;99084.50;5111290;28;20035;-66
2021/12/18 11:48:20;;;;;;;1.10;0.50;;;;;;;19.90;32.38;99085.91;5101732;28;20521;-66
2021/12/18 11:50:47;;;;;;;1.08;0.50;;;;;;;19.89;32.49;99078.88;5095015;28;20611;-66
2021/12/18 11:53:18;;;;;;;2.47;0.93;;;;;;;19.88;32.40;99074.53;5096895;28;20107;-64
2021/12/18 11:55:49;;;;;;;0.85;0.47;;;;;;;19.86;32.52;99079.22;5111501;28;20039;-66
2021/12/18 11:58:20;;;;;;;1.20;0.63;;;;;;;19.86;32.66;99068.50;5115044;28;20027;-66
2021/12/18 12:01:13;;;;;;;1.88;0.52;;;;;;;19.84;32.63;99067.88;5115255;28;20038;-66
2021/12/18 12:03:50;;;;;;;1.50;0.70;;;;;;;19.85;32.65;99061.50;5109728;28;20096;-65
2021/12/18 12:06:19;;;;;;;2.35;0.60;;;;;;;19.85;32.73;99056.13;5102085;28;20031;-66
2021/12/18 12:08:45;;;;;;;0.77;0.50;;;;;;;19.87;32.79;99066.69;5101921;28;20367;-66
2021/12/18 12:11:18;;;;;;;0.98;0.57;;;;;;;19.86;33.01;99048.88;5112553;28;20143;-66
2021/12/18 12:13:56;;;;;;;1.30;0.60;;;;;;;19.86;32.92;99049.69;5104721;28;20419;-66
2021/12/18 12:16:44;;;;;;;1.58;0.80;;;;;;;19.87;33.00;99047.88;5114497;28;20058;-65
2021/12/18 12:19:20;;;;;;;1.00;0.90;;;;;;;19.87;33.01;99034.47;5080081;28;20100;-66
2021/12/18 12:21:57;;;;;;;1.65;0.55;;;;;;;19.89;33.04;99032.41;5106312;28;20031;-66